createdAt,value
2023-06-11T00:02:01.750Z,100.00
2023-06-11T00:04:31.840Z,100.00
2023-06-11T00:06:59.458Z,100.00
2023-06-11T00:09:27.743Z,100.00
2023-06-11T00:11:55.876Z,100.00
2023-06-11T00:14:24.894Z,100.00
2023-06-11T00:16:52.628Z,100.00
2023-06-11T00:19:21.722Z,100.00
2023-06-11T00:21:50.523Z,100.00
2023-06-11T00:24:18.648Z,100.00
2023-06-11T00:26:46.601Z,100.00
2023-06-11T00:29:14.214Z,99.41
2023-06-11T00:31:41.929Z,100.00
2023-06-11T00:34:11.220Z,100.00
2023-06-11T00:36:41.617Z,98.08
2023-06-11T00:39:11.165Z,98.52
2023-06-11T00:41:40.413Z,100.00
2023-06-11T00:44:09.025Z,100.00
2023-06-11T00:46:39.179Z,100.00
2023-06-11T00:49:07.000Z,100.00
2023-06-11T00:51:35.795Z,100.00
2023-06-11T00:54:03.439Z,100.00
2023-06-11T00:56:31.067Z,100.00
2023-06-11T00:59:00.939Z,100.00
2023-06-11T01:01:33.112Z,100.00
2023-06-11T01:04:06.426Z,99.40
2023-06-11T01:06:36.212Z,100.00
2023-06-11T01:09:05.559Z,99.59
2023-06-11T01:11:36.751Z,96.88
2023-06-11T01:14:14.378Z,98.56
2023-06-11T01:16:54.168Z,98.20
2023-06-11T01:19:44.704Z,99.85
2023-06-11T01:22:20.413Z,100.00
2023-06-11T01:25:15.268Z,99.34
2023-06-11T01:28:08.850Z,98.52
2023-06-11T01:30:46.484Z,98.20
2023-06-11T01:33:15.188Z,98.36
2023-06-11T01:35:50.030Z,100.00
2023-06-11T01:38:19.142Z,100.00
2023-06-11T01:40:50.424Z,99.98
2023-06-11T01:43:18.235Z,100.00
2023-06-11T01:45:46.228Z,100.00
2023-06-11T01:48:13.809Z,100.00
2023-06-11T01:50:42.642Z,100.00
2023-06-11T01:53:12.057Z,100.00
2023-06-11T01:55:41.409Z,100.00
2023-06-11T01:58:09.859Z,100.00
2023-06-11T02:00:38.137Z,100.00
2023-06-11T02:03:06.916Z,100.00
2023-06-11T02:05:35.272Z,100.00
2023-06-11T02:08:03.239Z,99.63
2023-06-11T02:10:31.051Z,100.00
2023-06-11T02:12:59.335Z,100.00
2023-06-11T02:15:27.037Z,100.00
2023-06-11T02:17:54.758Z,100.00
2023-06-11T02:20:23.188Z,100.00
2023-06-11T02:22:51.196Z,100.00
2023-06-11T02:25:19.195Z,100.00
2023-06-11T02:27:51.384Z,100.00
2023-06-11T02:30:19.415Z,100.00
2023-06-11T02:32:47.440Z,100.00
2023-06-11T02:35:15.215Z,100.00
2023-06-11T02:37:42.738Z,100.00
2023-06-11T02:40:11.215Z,100.00
2023-06-11T02:42:38.771Z,100.00
2023-06-11T02:45:06.966Z,100.00
2023-06-11T02:47:34.549Z,100.00
2023-06-11T02:50:02.134Z,100.00
2023-06-11T02:52:30.324Z,100.00
2023-06-11T02:54:57.751Z,100.00
2023-06-11T02:57:25.385Z,100.00
2023-06-11T02:59:52.879Z,100.00
2023-06-11T03:02:20.519Z,100.00
2023-06-11T03:04:48.077Z,100.00
2023-06-11T03:07:16.167Z,100.00
2023-06-11T03:09:43.744Z,100.00
2023-06-11T03:12:12.362Z,100.00
2023-06-11T03:14:40.220Z,100.00
2023-06-11T03:17:07.777Z,100.00
2023-06-11T03:19:35.419Z,100.00
2023-06-11T03:22:03.094Z,100.00
2023-06-11T03:24:30.659Z,100.00
2023-06-11T03:27:07.338Z,100.00
2023-06-11T03:29:34.829Z,100.00
2023-06-11T03:32:02.468Z,100.00
2023-06-11T03:34:30.907Z,100.00
2023-06-11T03:37:00.356Z,100.00
2023-06-11T03:39:28.022Z,100.00
2023-06-11T03:41:58.027Z,100.00
2023-06-11T03:44:28.051Z,100.00
2023-06-11T03:46:56.032Z,100.00
2023-06-11T03:49:23.767Z,100.00
2023-06-11T03:51:51.375Z,100.00
2023-06-11T03:54:19.030Z,100.00
2023-06-11T03:56:46.569Z,100.00
2023-06-11T03:59:14.575Z,100.00
2023-06-11T04:01:42.745Z,100.00
2023-06-11T04:04:10.493Z,100.00
2023-06-11T04:06:39.221Z,100.00
2023-06-11T04:09:08.034Z,100.00
2023-06-11T04:11:35.885Z,100.00
2023-06-11T04:14:03.765Z,100.00
2023-06-11T04:16:31.397Z,100.00
2023-06-11T04:18:59.125Z,99.57
2023-06-11T04:21:26.704Z,98.68
2023-06-11T04:23:54.226Z,99.70
2023-06-11T04:26:24.876Z,99.17
2023-06-11T04:28:54.212Z,98.56
2023-06-11T04:31:27.615Z,100.00
2023-06-11T04:33:57.923Z,100.00
2023-06-11T04:36:26.072Z,100.00
2023-06-11T04:38:55.868Z,100.00
2023-06-11T04:41:27.543Z,100.00
2023-06-11T04:43:55.612Z,100.00
2023-06-11T04:46:23.771Z,100.00
2023-06-11T04:48:51.616Z,100.00
2023-06-11T04:51:21.651Z,99.97
2023-06-11T04:53:53.384Z,100.00
2023-06-11T04:56:21.719Z,94.12
2023-06-11T04:58:50.558Z,94.54
2023-06-11T05:01:18.490Z,95.39
2023-06-11T05:03:48.913Z,93.68
2023-06-11T05:06:22.627Z,93.13
2023-06-11T05:08:54.047Z,94.26
2023-06-11T05:11:21.970Z,93.78
2023-06-11T05:13:49.617Z,93.63
2023-06-11T05:16:22.501Z,94.18
2023-06-11T05:18:51.315Z,95.99
2023-06-11T05:21:19.396Z,96.51
2023-06-11T05:23:47.094Z,96.63
2023-06-11T05:26:14.926Z,96.80
2023-06-11T05:28:45.904Z,95.38
2023-06-11T05:31:14.169Z,92.84
2023-06-11T05:33:45.531Z,89.97
2023-06-11T05:36:13.018Z,92.24
2023-06-11T05:38:40.821Z,88.57
2023-06-11T05:41:08.791Z,91.49
2023-06-11T05:43:36.802Z,92.66
2023-06-11T05:46:04.519Z,90.00
2023-06-11T05:48:33.020Z,87.64
2023-06-11T05:51:01.416Z,80.17
2023-06-11T05:53:29.453Z,78.27
2023-06-11T05:55:58.376Z,74.96
2023-06-11T05:58:25.990Z,75.39
2023-06-11T06:00:55.544Z,75.07
2023-06-11T06:03:23.565Z,74.66
2023-06-11T06:05:51.417Z,73.59
2023-06-11T06:08:18.975Z,72.97
2023-06-11T06:10:46.596Z,70.62
2023-06-11T06:13:14.142Z,74.66
2023-06-11T06:15:43.830Z,77.26
2023-06-11T06:18:13.097Z,73.01
2023-06-11T06:20:43.532Z,74.58
2023-06-11T06:23:12.077Z,74.98
2023-06-11T06:25:42.907Z,72.25
2023-06-11T06:28:12.375Z,69.78
2023-06-11T06:30:41.130Z,67.73
2023-06-11T06:33:09.841Z,66.65
2023-06-11T06:35:38.133Z,64.85
2023-06-11T06:38:06.535Z,64.55
2023-06-11T06:40:36.010Z,63.94
2023-06-11T06:43:03.547Z,64.08
2023-06-11T06:45:34.903Z,65.85
2023-06-11T06:48:10.193Z,64.59
2023-06-11T06:50:38.425Z,64.01
2023-06-11T06:53:06.493Z,67.62
2023-06-11T06:55:34.050Z,67.43
2023-06-11T06:58:06.403Z,65.18
2023-06-11T07:00:34.138Z,66.97
2023-06-11T07:03:02.158Z,68.68
2023-06-11T07:05:30.200Z,65.85
2023-06-11T07:07:57.917Z,66.63
2023-06-11T07:10:25.672Z,66.03
2023-06-11T07:12:54.456Z,65.64
2023-06-11T07:15:22.439Z,67.43
2023-06-11T07:17:49.963Z,67.86
2023-06-11T07:20:20.139Z,68.24
2023-06-11T07:22:47.784Z,65.19
2023-06-11T07:25:16.725Z,67.12
2023-06-11T07:27:44.412Z,66.44
2023-06-11T07:30:13.171Z,68.04
2023-06-11T07:32:41.297Z,64.46
2023-06-11T07:35:09.988Z,64.31
2023-06-11T07:37:37.539Z,63.33
2023-06-11T07:40:06.497Z,63.59
2023-06-11T07:42:34.060Z,64.09
2023-06-11T07:45:01.577Z,65.63
2023-06-11T07:47:29.280Z,67.50
2023-06-11T07:49:56.835Z,66.87
2023-06-11T07:52:26.981Z,67.54
2023-06-11T07:54:54.734Z,64.92
2023-06-11T07:57:22.522Z,65.19
2023-06-11T07:59:50.067Z,63.42
2023-06-11T08:02:18.139Z,64.87
2023-06-11T08:04:46.087Z,64.39
2023-06-11T08:07:13.622Z,62.19
2023-06-11T08:09:41.708Z,64.04
2023-06-11T08:12:09.907Z,64.31
2023-06-11T08:14:37.557Z,64.38
2023-06-11T08:17:05.488Z,64.52
2023-06-11T08:19:33.115Z,62.15
2023-06-11T08:22:02.601Z,59.93
2023-06-11T08:24:32.021Z,61.22
2023-06-11T08:26:59.723Z,60.45
2023-06-11T08:29:27.318Z,59.71
2023-06-11T08:31:54.915Z,60.06
2023-06-11T08:34:22.361Z,59.14
2023-06-11T08:36:49.913Z,59.20
2023-06-11T08:39:17.355Z,58.20
2023-06-11T08:41:44.800Z,58.86
2023-06-11T08:44:12.234Z,59.38
2023-06-11T08:46:40.257Z,59.74
2023-06-11T08:49:08.902Z,58.97
2023-06-11T08:51:38.408Z,55.89
2023-06-11T08:54:08.106Z,53.88
2023-06-11T08:56:36.209Z,55.71
2023-06-11T08:59:03.974Z,55.98
2023-06-11T09:01:32.728Z,55.76
2023-06-11T09:04:01.419Z,52.53
2023-06-11T09:06:31.974Z,52.69
2023-06-11T09:09:06.528Z,54.60
2023-06-11T09:11:35.454Z,49.54
2023-06-11T09:14:04.195Z,49.88
2023-06-11T09:16:40.659Z,50.48
2023-06-11T09:19:18.228Z,50.87
2023-06-11T09:21:54.370Z,53.06
2023-06-11T09:24:23.158Z,51.15
2023-06-11T09:26:56.111Z,48.70
2023-06-11T09:29:28.698Z,48.16
2023-06-11T09:32:23.368Z,45.50
2023-06-11T09:34:57.523Z,46.30
2023-06-11T09:37:25.219Z,46.72
2023-06-11T09:39:52.797Z,45.08
2023-06-11T09:42:25.634Z,44.93
2023-06-11T09:44:58.698Z,45.75
2023-06-11T09:47:28.527Z,48.24
2023-06-11T09:49:57.291Z,45.74
2023-06-11T09:52:27.486Z,44.76
2023-06-11T09:54:56.081Z,46.80
2023-06-11T09:57:23.607Z,48.18
2023-06-11T09:59:51.988Z,49.95
2023-06-11T10:02:19.765Z,46.38
2023-06-11T10:04:47.484Z,48.13
2023-06-11T10:07:16.761Z,47.24
2023-06-11T10:09:45.507Z,47.28
2023-06-11T10:12:16.227Z,49.01
2023-06-11T10:14:54.032Z,48.31
2023-06-11T10:17:23.284Z,44.49
2023-06-11T10:19:52.947Z,46.45
2023-06-11T10:22:34.286Z,45.76
2023-06-11T10:25:02.563Z,46.63
2023-06-11T10:27:37.742Z,46.15
2023-06-11T10:30:08.535Z,45.72
2023-06-11T10:32:48.073Z,45.72
2023-06-11T10:35:23.848Z,44.86
2023-06-11T10:37:51.928Z,44.45
2023-06-11T10:40:21.098Z,44.75
2023-06-11T10:42:53.467Z,44.16
2023-06-11T10:45:21.207Z,45.68
2023-06-11T10:47:51.006Z,45.16
2023-06-11T10:50:31.580Z,44.69
2023-06-11T10:53:09.077Z,44.26
2023-06-11T10:55:42.269Z,44.56
2023-06-11T10:58:10.599Z,44.58
2023-06-11T11:00:38.492Z,45.27
2023-06-11T11:03:06.968Z,46.86
2023-06-11T11:05:34.692Z,46.76
2023-06-11T11:08:02.306Z,45.43
2023-06-11T11:10:30.330Z,44.93
2023-06-11T11:12:58.057Z,44.07
2023-06-11T11:15:25.655Z,44.83
2023-06-11T11:17:53.334Z,45.23
2023-06-11T11:20:21.466Z,45.79
2023-06-11T11:22:53.704Z,46.70
2023-06-11T11:25:29.066Z,46.07
2023-06-11T11:27:57.814Z,44.18
2023-06-11T11:30:29.756Z,44.95
2023-06-11T11:32:58.476Z,46.97
2023-06-11T11:35:27.726Z,46.53
2023-06-11T11:37:56.035Z,47.95
2023-06-11T11:40:23.746Z,48.70
2023-06-11T11:42:59.013Z,47.84
2023-06-11T11:45:34.482Z,48.52
2023-06-11T11:48:05.456Z,50.35
2023-06-11T11:50:34.796Z,49.27
2023-06-11T11:53:07.010Z,47.55
2023-06-11T11:55:51.735Z,50.10
2023-06-11T11:58:27.871Z,49.56
2023-06-11T12:00:59.567Z,49.06
2023-06-11T12:03:28.331Z,48.16
2023-06-11T12:06:23.797Z,49.06
2023-06-11T12:08:51.400Z,49.95
2023-06-11T12:11:19.034Z,48.05
2023-06-11T12:13:46.834Z,47.72
2023-06-11T12:16:16.002Z,47.21
2023-06-11T12:18:43.589Z,50.13
2023-06-11T12:21:11.123Z,50.87
2023-06-11T12:23:38.711Z,50.97
2023-06-11T12:26:06.429Z,50.72
2023-06-11T12:28:34.041Z,50.40
2023-06-11T12:31:01.611Z,49.24
2023-06-11T12:33:29.214Z,51.06
2023-06-11T12:36:01.527Z,51.18
2023-06-11T12:38:29.443Z,52.00
2023-06-11T12:40:57.227Z,52.14
2023-06-11T12:43:24.804Z,51.89
2023-06-11T12:45:52.688Z,51.43
2023-06-11T12:48:20.469Z,51.98
2023-06-11T12:50:48.111Z,51.31
2023-06-11T12:53:15.673Z,51.38
2023-06-11T12:55:43.166Z,51.08
2023-06-11T12:58:11.291Z,50.73
2023-06-11T13:00:38.918Z,51.56
2023-06-11T13:03:06.904Z,51.39
2023-06-11T13:05:34.477Z,50.24
2023-06-11T13:08:02.204Z,51.18
2023-06-11T13:10:29.776Z,51.65
2023-06-11T13:12:59.179Z,51.85
2023-06-11T13:15:27.573Z,50.37
2023-06-11T13:17:55.191Z,50.92
2023-06-11T13:20:23.276Z,50.09
2023-06-11T13:22:51.307Z,49.43
2023-06-11T13:25:18.950Z,49.21
2023-06-11T13:27:46.482Z,49.09
2023-06-11T13:30:14.840Z,47.62
2023-06-11T13:32:42.740Z,47.88
2023-06-11T13:35:10.541Z,48.50
2023-06-11T13:37:38.191Z,49.29
2023-06-11T13:40:06.657Z,49.17
2023-06-11T13:42:34.260Z,48.82
2023-06-11T13:45:05.900Z,48.77
2023-06-11T13:47:33.616Z,47.95
2023-06-11T13:50:01.858Z,48.98
2023-06-11T13:52:29.735Z,50.13
2023-06-11T13:54:57.275Z,49.72
2023-06-11T13:57:29.076Z,49.46
2023-06-11T13:59:56.944Z,49.62
2023-06-11T14:02:25.222Z,49.89
2023-06-11T14:04:54.530Z,50.40
2023-06-11T14:07:22.561Z,49.39
2023-06-11T14:09:50.636Z,49.15
2023-06-11T14:12:18.259Z,46.67
2023-06-11T14:14:46.137Z,45.89
2023-06-11T14:17:13.773Z,46.98
2023-06-11T14:19:41.365Z,47.51
2023-06-11T14:22:09.001Z,46.58
2023-06-11T14:24:36.466Z,46.59
2023-06-11T14:27:04.291Z,47.96
2023-06-11T14:29:31.823Z,47.99
2023-06-11T14:32:03.689Z,49.62
2023-06-11T14:34:31.819Z,48.49
2023-06-11T14:36:59.457Z,47.50
2023-06-11T14:39:26.991Z,49.83
2023-06-11T14:41:54.526Z,48.41
2023-06-11T14:44:22.001Z,45.81
2023-06-11T14:46:50.264Z,46.15
2023-06-11T14:49:21.322Z,46.79
2023-06-11T14:51:49.905Z,47.54
2023-06-11T14:54:17.347Z,47.28
2023-06-11T14:56:44.932Z,46.69
2023-06-11T14:59:12.706Z,48.94
2023-06-11T15:01:43.168Z,47.72
2023-06-11T15:04:12.699Z,47.30
2023-06-11T15:06:42.020Z,47.53
2023-06-11T15:09:10.252Z,46.04
2023-06-11T15:11:37.784Z,47.57
2023-06-11T15:14:06.154Z,46.56
2023-06-11T15:16:33.802Z,45.37
2023-06-11T15:19:01.430Z,46.47
2023-06-11T15:21:28.938Z,46.70
2023-06-11T15:23:56.491Z,46.79
2023-06-11T15:26:23.998Z,45.67
2023-06-11T15:28:51.659Z,45.99
2023-06-11T15:31:19.234Z,46.29
2023-06-11T15:33:46.760Z,44.97
2023-06-11T15:36:38.971Z,45.75
2023-06-11T15:39:06.565Z,45.38
2023-06-11T15:41:34.077Z,46.57
2023-06-11T15:44:01.862Z,46.26
2023-06-11T15:46:29.510Z,45.31
2023-06-11T15:48:57.956Z,45.83
2023-06-11T15:51:25.557Z,46.06
2023-06-11T15:53:53.142Z,46.93
2023-06-11T15:56:20.690Z,46.80
2023-06-11T15:58:48.445Z,47.73
2023-06-11T16:01:16.851Z,48.55
2023-06-11T16:03:44.864Z,48.72
2023-06-11T16:06:12.499Z,46.77
2023-06-11T16:08:40.070Z,46.62
2023-06-11T16:11:07.613Z,46.68
2023-06-11T16:13:35.111Z,49.27
2023-06-11T16:16:02.760Z,48.03
2023-06-11T16:18:30.280Z,47.12
2023-06-11T16:20:57.877Z,47.80
2023-06-11T16:23:25.428Z,47.26
2023-06-11T16:25:52.956Z,47.19
2023-06-11T16:28:20.556Z,48.07
2023-06-11T16:30:48.148Z,47.81
2023-06-11T16:33:15.798Z,49.04
2023-06-11T16:35:43.458Z,48.20
2023-06-11T16:38:10.961Z,47.46
2023-06-11T16:40:38.527Z,47.88
2023-06-11T16:43:06.166Z,47.28
2023-06-11T16:45:33.641Z,46.77
2023-06-11T16:48:01.414Z,46.63
2023-06-11T16:50:29.153Z,46.96
2023-06-11T16:52:56.667Z,46.99
2023-06-11T16:55:24.397Z,47.43
2023-06-11T16:57:51.912Z,47.71
2023-06-11T17:00:20.441Z,47.11
2023-06-11T17:02:50.457Z,45.28
2023-06-11T17:05:18.231Z,44.66
2023-06-11T17:07:45.745Z,44.56
2023-06-11T17:10:13.643Z,44.13
2023-06-11T17:12:46.864Z,44.78
2023-06-11T17:15:17.567Z,45.94
2023-06-11T17:17:46.380Z,47.43
2023-06-11T17:20:15.356Z,49.21
2023-06-11T17:22:47.458Z,49.88
2023-06-11T17:25:15.481Z,50.23
2023-06-11T17:27:43.216Z,50.33
2023-06-11T17:30:11.492Z,50.84
2023-06-11T17:32:39.319Z,51.20
2023-06-11T17:35:08.222Z,51.76
2023-06-11T17:37:36.017Z,51.43
2023-06-11T17:40:05.495Z,50.62
2023-06-11T17:42:33.051Z,50.95
2023-06-11T17:45:00.655Z,51.03
2023-06-11T17:47:28.177Z,50.95
2023-06-11T17:49:55.717Z,52.12
2023-06-11T17:52:23.202Z,53.03
2023-06-11T17:54:52.100Z,53.37
2023-06-11T17:57:21.520Z,53.16
2023-06-11T17:59:49.738Z,53.57
2023-06-11T18:02:17.306Z,53.35
2023-06-11T18:04:44.786Z,52.37
2023-06-11T18:07:12.328Z,53.02
2023-06-11T18:09:39.907Z,54.24
2023-06-11T18:12:07.955Z,54.17
2023-06-11T18:14:35.532Z,54.44
2023-06-11T18:17:03.083Z,52.81
2023-06-11T18:19:30.634Z,51.98
2023-06-11T18:21:58.175Z,51.38
2023-06-11T18:24:29.631Z,51.52
2023-06-11T18:26:57.526Z,52.93
2023-06-11T18:29:27.116Z,53.18
2023-06-11T18:31:56.130Z,53.57
2023-06-11T18:34:23.628Z,54.30
2023-06-11T18:36:51.343Z,54.31
2023-06-11T18:39:20.186Z,54.86
2023-06-11T18:41:47.696Z,55.42
2023-06-11T18:44:15.273Z,55.47
2023-06-11T18:46:45.891Z,55.62
2023-06-11T18:49:13.564Z,56.48
2023-06-11T18:51:41.574Z,57.08
2023-06-11T18:54:11.693Z,57.22
2023-06-11T18:56:39.144Z,56.99
2023-06-11T18:59:08.001Z,57.26
2023-06-11T19:01:35.780Z,57.66
2023-06-11T19:04:03.388Z,58.16
2023-06-11T19:06:34.518Z,57.78
2023-06-11T19:09:01.955Z,58.36
2023-06-11T19:11:33.386Z,59.32
2023-06-11T19:14:00.879Z,59.25
2023-06-11T19:16:28.812Z,58.86
2023-06-11T19:18:56.354Z,58.93
2023-06-11T19:21:26.205Z,58.59
2023-06-11T19:23:54.335Z,58.45
2023-06-11T19:26:26.472Z,58.20
2023-06-11T19:28:54.006Z,57.55
2023-06-11T19:31:21.671Z,57.48
2023-06-11T19:33:49.194Z,56.61
2023-06-11T19:36:16.830Z,57.01
2023-06-11T19:38:45.696Z,58.12
2023-06-11T19:41:15.681Z,59.05
2023-06-11T19:43:43.910Z,61.64
2023-06-11T19:46:11.540Z,68.34
2023-06-11T19:48:39.997Z,74.56
2023-06-11T19:51:09.563Z,79.46
2023-06-11T19:53:39.366Z,83.98
2023-06-11T19:56:14.725Z,86.15
2023-06-11T19:58:42.623Z,87.28
2023-06-11T20:01:11.143Z,91.71
2023-06-11T20:03:38.618Z,93.95
2023-06-11T20:06:06.165Z,97.10
2023-06-11T20:08:33.904Z,97.20
2023-06-11T20:11:08.770Z,92.82
2023-06-11T20:13:37.470Z,95.65
2023-06-11T20:16:05.450Z,97.28
2023-06-11T20:18:37.929Z,100.00
2023-06-11T20:21:05.555Z,100.00
2023-06-11T20:23:33.228Z,100.00
2023-06-11T20:26:00.808Z,100.00
2023-06-11T20:28:35.525Z,100.00
2023-06-11T20:31:05.033Z,99.68
2023-06-11T20:33:33.123Z,98.44
2023-06-11T20:36:00.688Z,97.24
2023-06-11T20:38:28.192Z,99.34
2023-06-11T20:40:59.680Z,100.00
2023-06-11T20:43:27.699Z,100.00
2023-06-11T20:45:58.356Z,100.00
2023-06-11T20:48:28.432Z,100.00
2023-06-11T20:50:57.183Z,100.00
2023-06-11T20:53:33.930Z,100.00
2023-06-11T20:56:03.772Z,100.00
2023-06-11T20:58:31.455Z,100.00
2023-06-11T21:00:59.012Z,100.00
2023-06-11T21:03:26.612Z,100.00
2023-06-11T21:05:57.470Z,100.00
2023-06-11T21:08:25.437Z,100.00
2023-06-11T21:10:53.007Z,100.00
2023-06-11T21:13:22.644Z,100.00
2023-06-11T21:15:50.206Z,100.00
2023-06-11T21:18:17.830Z,100.00
2023-06-11T21:20:45.323Z,100.00
2023-06-11T21:23:12.877Z,100.00
2023-06-11T21:25:40.483Z,100.00
2023-06-11T21:28:11.745Z,100.00
2023-06-11T21:30:39.729Z,100.00
2023-06-11T21:33:07.248Z,100.00
2023-06-11T21:35:34.862Z,100.00
2023-06-11T21:38:03.631Z,100.00
2023-06-11T21:40:31.542Z,100.00
2023-06-11T21:42:58.952Z,100.00
2023-06-11T21:45:26.425Z,100.00
2023-06-11T21:47:57.823Z,100.00
2023-06-11T21:50:25.473Z,100.00
2023-06-11T21:52:54.358Z,100.00
2023-06-11T21:55:21.923Z,100.00
2023-06-11T21:57:49.484Z,100.00
2023-06-11T22:00:17.566Z,100.00
2023-06-11T22:02:45.109Z,100.00
2023-06-11T22:05:15.805Z,100.00
2023-06-11T22:07:50.401Z,100.00
2023-06-11T22:10:18.276Z,100.00
2023-06-11T22:12:46.542Z,100.00
2023-06-11T22:15:14.287Z,100.00
2023-06-11T22:17:41.862Z,100.00
2023-06-11T22:20:11.613Z,100.00
2023-06-11T22:22:43.774Z,100.00
2023-06-11T22:25:13.984Z,100.00
2023-06-11T22:27:43.171Z,100.00
2023-06-11T22:30:12.348Z,100.00
2023-06-11T22:32:40.325Z,99.27
2023-06-11T22:35:12.214Z,98.56
2023-06-11T22:37:39.706Z,98.18
2023-06-11T22:40:12.350Z,97.37
2023-06-11T22:42:40.181Z,100.00
2023-06-11T22:45:08.314Z,97.98
2023-06-11T22:47:36.418Z,97.35
2023-06-11T22:50:04.236Z,99.26
2023-06-11T22:52:39.969Z,98.99
2023-06-11T22:55:09.515Z,100.00
2023-06-11T22:57:37.306Z,100.00
2023-06-11T23:00:07.931Z,97.83
2023-06-11T23:02:35.540Z,97.98
2023-06-11T23:05:04.688Z,99.29
2023-06-11T23:07:32.418Z,98.80
2023-06-11T23:09:59.865Z,99.43
2023-06-11T23:12:27.845Z,98.82
2023-06-11T23:15:00.621Z,98.97
2023-06-11T23:17:28.846Z,100.00
2023-06-11T23:19:56.370Z,100.00
2023-06-11T23:22:25.144Z,100.00
2023-06-11T23:24:52.701Z,100.00
2023-06-11T23:27:22.615Z,100.00
2023-06-11T23:29:51.305Z,100.00
2023-06-11T23:32:20.350Z,100.00
2023-06-11T23:34:50.118Z,100.00
2023-06-11T23:37:21.107Z,100.00
2023-06-11T23:39:48.581Z,100.00
2023-06-11T23:42:16.035Z,100.00
2023-06-11T23:44:43.493Z,100.00
2023-06-11T23:47:11.072Z,100.00
2023-06-11T23:49:42.508Z,100.00
2023-06-11T23:52:10.434Z,100.00
2023-06-11T23:54:37.947Z,100.00
2023-06-11T23:57:06.685Z,100.00
2023-06-11T23:59:34.180Z,100.00
